Time;durP1;ratioP1;P1;durP2;ratioP2;P2;SDS_P1;SDS_P2;PMS_P1;PMS_P2;Temp;Humidity;BMP_temperature;BMP_pressure;BME280_temperature;BME280_humidity;BME280_pressure;Samples;Min_cycle;Max_cycle;Signal;HPM_P1;HPM_P2
2021/12/04 00:02:26;;;;;;;47.20;27.27;;;4.80;99.90;;;;;;5044762;28;20538;-38
2021/12/04 00:04:54;;;;;;;51.90;28.38;;;4.80;99.90;;;;;;5045563;28;20073;-37
2021/12/04 00:07:22;;;;;;;46.20;24.77;;;4.90;99.90;;;;;;5048434;28;20443;-37
2021/12/04 00:09:51;;;;;;;52.65;27.38;;;4.90;99.90;;;;;;5049157;28;20475;-37
2021/12/04 00:12:18;;;;;;;48.75;27.67;;;4.90;99.90;;;;;;5050839;28;20049;-41
2021/12/04 00:14:46;;;;;;;49.10;26.13;;;4.80;99.90;;;;;;5048132;28;20044;-36
2021/12/04 00:17:13;;;;;;;56.38;27.60;;;4.80;99.90;;;;;;5049472;28;20559;-36
2021/12/04 00:19:40;;;;;;;49.47;26.75;;;4.80;99.90;;;;;;5048920;28;20053;-37
2021/12/04 00:22:07;;;;;;;50.40;26.25;;;4.80;99.90;;;;;;5041418;28;20099;-37
2021/12/04 00:24:34;;;;;;;50.95;27.15;;;4.80;99.90;;;;;;5047005;28;20095;-38
2021/12/04 00:27:02;;;;;;;50.75;26.77;;;4.80;99.90;;;;;;5051283;28;20083;-37
2021/12/04 00:29:29;;;;;;;56.33;28.20;;;4.80;99.90;;;;;;5047476;28;20124;-37
2021/12/04 00:32:00;;;;;;;57.50;28.83;;;4.80;99.90;;;;;;5084104;28;20145;-37
2021/12/04 00:34:28;;;;;;;48.97;25.80;;;4.80;99.90;;;;;;5075784;28;20053;-36
2021/12/04 00:37:16;;;;;;;52.13;26.45;;;4.80;99.90;;;;;;5038740;28;20059;-37
2021/12/04 00:49:07;;;;;;;58.53;27.90;;;4.80;99.90;;;;;;5042873;28;20567;-37
2021/12/04 00:51:14;;;;;;;59.03;25.80;;;4.80;99.90;;;;;;5036170;28;20064;-36
2021/12/04 00:53:41;;;;;;;51.55;26.27;;;4.80;99.90;;;;;;5049564;28;20049;-36
2021/12/04 00:56:08;;;;;;;61.00;28.17;;;4.80;99.90;;;;;;5041050;28;20085;-36
2021/12/04 00:58:37;;;;;;;58.95;27.38;;;4.80;99.90;;;;;;5039512;28;20147;-37
2021/12/04 01:01:04;;;;;;;63.00;27.92;;;4.80;99.90;;;;;;5047980;28;20121;-36
2021/12/04 01:03:31;;;;;;;54.55;26.15;;;4.80;99.90;;;;;;5044332;28;20099;-37
2021/12/04 01:05:58;;;;;;;61.08;26.42;;;4.70;99.90;;;;;;5042541;28;20053;-37
2021/12/04 01:08:25;;;;;;;66.97;27.70;;;4.80;99.90;;;;;;5037710;28;20059;-37
2021/12/04 01:10:52;;;;;;;64.32;27.38;;;4.70;99.90;;;;;;5043020;28;20053;-37
2021/12/04 01:13:20;;;;;;;63.30;28.88;;;4.80;99.90;;;;;;5042317;28;20505;-38
2021/12/04 01:15:49;;;;;;;65.75;26.98;;;4.70;99.90;;;;;;5043833;28;20068;-36
2021/12/04 01:18:16;;;;;;;69.90;27.25;;;4.70;99.90;;;;;;5038947;28;20124;-36
2021/12/04 01:20:43;;;;;;;49.88;24.60;;;4.70;99.90;;;;;;5040095;28;20052;-37
2021/12/04 01:23:10;;;;;;;56.05;23.75;;;4.70;99.90;;;;;;5038822;28;20493;-37
2021/12/04 01:25:37;;;;;;;51.90;24.90;;;4.70;99.90;;;;;;5042852;28;20132;-36
2021/12/04 01:28:05;;;;;;;44.58;22.45;;;4.70;99.90;;;;;;5044614;28;20064;-36
2021/12/04 01:30:32;;;;;;;47.55;23.75;;;4.70;99.90;;;;;;5048650;28;20103;-36
2021/12/04 01:33:00;;;;;;;45.42;23.20;;;4.70;99.90;;;;;;5038055;28;20072;-36
2021/12/04 01:35:27;;;;;;;38.08;21.77;;;4.70;99.90;;;;;;5049350;28;20047;-36
2021/12/04 01:37:54;;;;;;;37.30;21.73;;;4.70;99.90;;;;;;5044095;28;20080;-36
2021/12/04 01:40:21;;;;;;;40.78;21.67;;;4.70;99.90;;;;;;5038449;28;20137;-37
2021/12/04 01:42:48;;;;;;;36.38;21.23;;;4.70;99.90;;;;;;5048209;28;20069;-36
2021/12/04 01:45:17;;;;;;;34.83;19.60;;;4.70;99.90;;;;;;5050091;28;21710;-37
2021/12/04 01:47:44;;;;;;;31.73;19.85;;;4.70;99.90;;;;;;5050336;28;20499;-40
2021/12/04 01:50:13;;;;;;;32.05;20.33;;;4.70;99.90;;;;;;5045315;28;20120;-36
2021/12/04 01:52:40;;;;;;;36.20;20.75;;;4.70;99.90;;;;;;5038923;28;20133;-37
2021/12/04 01:55:08;;;;;;;37.08;20.85;;;4.70;99.90;;;;;;5042044;28;20048;-37
2021/12/04 01:57:35;;;;;;;27.85;17.88;;;4.70;99.90;;;;;;5035025;28;20053;-36
2021/12/04 02:00:03;;;;;;;29.15;19.27;;;4.70;99.90;;;;;;5041570;28;20088;-37
2021/12/04 02:02:30;;;;;;;24.65;17.50;;;4.70;99.90;;;;;;5040789;28;20058;-40
2021/12/04 02:04:57;;;;;;;24.35;16.08;;;4.70;99.90;;;;;;5035339;28;20543;-39
2021/12/04 02:07:26;;;;;;;26.13;17.50;;;4.70;99.90;;;;;;5041732;28;20136;-37
2021/12/04 02:09:53;;;;;;;29.20;18.50;;;4.70;99.90;;;;;;5045759;28;20049;-38
2021/12/04 02:12:20;;;;;;;24.90;17.23;;;4.70;99.90;;;;;;5044097;28;20141;-37
2021/12/04 02:14:47;;;;;;;27.25;18.23;;;4.70;99.90;;;;;;5041077;28;20140;-37
2021/12/04 02:17:14;;;;;;;26.65;18.25;;;4.70;99.90;;;;;;5043087;28;20099;-36
2021/12/04 02:19:41;;;;;;;28.02;18.13;;;4.70;99.90;;;;;;5038774;28;20493;-38
2021/12/04 02:22:09;;;;;;;26.67;17.40;;;4.70;99.90;;;;;;5042196;28;20068;-37
2021/12/04 02:24:36;;;;;;;24.90;17.60;;;4.70;99.90;;;;;;5042302;28;20119;-37
2021/12/04 02:27:03;;;;;;;28.02;18.70;;;4.70;99.90;;;;;;5045638;28;20166;-37
2021/12/04 02:29:30;;;;;;;25.50;18.13;;;4.70;99.90;;;;;;5043956;28;20048;-37
2021/12/04 02:31:58;;;;;;;25.63;18.13;;;4.70;99.90;;;;;;5053198;28;20135;-36
2021/12/04 02:34:26;;;;;;;26.98;18.52;;;4.70;99.90;;;;;;5053824;28;20071;-38
2021/12/04 02:36:53;;;;;;;27.30;19.15;;;4.70;99.90;;;;;;5047555;28;20053;-37
2021/12/04 02:39:27;;;;;;;29.23;19.58;;;4.80;99.90;;;;;;5044670;28;20088;-37
2021/12/04 02:41:54;;;;;;;28.23;19.38;;;4.70;99.90;;;;;;5047816;28;20494;-37
2021/12/04 02:44:21;;;;;;;29.17;19.73;;;4.70;99.90;;;;;;5039792;28;20048;-38
2021/12/04 02:46:48;;;;;;;31.20;19.75;;;4.70;99.90;;;;;;5052868;28;20052;-37
2021/12/04 02:49:15;;;;;;;29.88;19.50;;;4.80;99.90;;;;;;5045127;28;20064;-38
2021/12/04 02:51:42;;;;;;;26.63;18.38;;;4.80;99.90;;;;;;5047887;28;20448;-36
2021/12/04 02:54:11;;;;;;;27.17;18.50;;;4.80;99.90;;;;;;5042695;28;20045;-36
2021/12/04 02:56:39;;;;;;;26.77;17.85;;;4.80;99.90;;;;;;5044785;28;20064;-36
2021/12/04 02:59:07;;;;;;;26.63;18.13;;;4.80;99.90;;;;;;5047803;28;20053;-37
2021/12/04 03:01:34;;;;;;;28.27;18.35;;;4.80;99.90;;;;;;5039258;28;20052;-37
2021/12/04 03:04:08;;;;;;;25.23;17.13;;;4.70;99.90;;;;;;5046507;28;20037;-38
2021/12/04 03:06:39;;;;;;;25.40;17.48;;;4.80;99.90;;;;;;5047713;28;20045;-39
2021/12/04 03:09:06;;;;;;;25.38;17.13;;;4.70;99.90;;;;;;5046175;28;20045;-39
2021/12/04 03:11:33;;;;;;;25.42;17.33;;;4.80;99.90;;;;;;5046656;28;20056;-37
2021/12/04 03:14:02;;;;;;;26.13;17.33;;;4.70;99.90;;;;;;5051464;28;20132;-37
2021/12/04 03:16:29;;;;;;;25.70;17.02;;;4.70;99.90;;;;;;5043977;28;20083;-38
2021/12/04 03:18:56;;;;;;;28.75;17.45;;;4.70;99.90;;;;;;5045418;28;20122;-37
2021/12/04 03:21:23;;;;;;;26.88;16.92;;;4.80;99.90;;;;;;5049179;28;20136;-37
2021/12/04 03:23:56;;;;;;;25.13;16.65;;;4.70;99.90;;;;;;5044386;28;20063;-37
2021/12/04 03:26:23;;;;;;;25.35;16.65;;;4.70;99.90;;;;;;5051445;28;20053;-37
2021/12/04 03:28:51;;;;;;;27.08;17.02;;;4.70;99.90;;;;;;5047926;28;20045;-37
2021/12/04 03:31:23;;;;;;;27.23;16.40;;;4.70;99.90;;;;;;5044452;28;20076;-38
2021/12/04 03:42:02;;;;;;;24.27;15.52;;;4.70;99.90;;;;;;5081182;28;20500;-36
2021/12/04 03:44:31;;;;;;;24.27;16.25;;;4.70;99.90;;;;;;5048004;28;20051;-37
2021/12/04 03:46:59;;;;;;;26.40;16.15;;;4.70;99.90;;;;;;5072999;28;20052;-37
2021/12/04 03:49:26;;;;;;;28.73;17.60;;;4.70;99.90;;;;;;5041398;28;20099;-37
2021/12/04 03:51:53;;;;;;;26.15;16.25;;;4.70;99.90;;;;;;5042093;28;20490;-37
2021/12/04 03:54:21;;;;;;;27.52;16.40;;;4.70;99.90;;;;;;5053656;28;20063;-36
2021/12/04 03:56:50;;;;;;;28.27;17.10;;;4.70;99.90;;;;;;5039209;28;20049;-40
2021/12/04 03:59:18;;;;;;;24.65;16.55;;;4.70;99.90;;;;;;5050696;28;20053;-40
2021/12/04 04:01:45;;;;;;;28.25;17.08;;;4.70;99.90;;;;;;5044440;28;20080;-37
2021/12/04 04:04:14;;;;;;;33.38;17.17;;;4.70;99.90;;;;;;5044414;28;20048;-38
2021/12/04 04:06:41;;;;;;;29.02;17.10;;;4.70;99.90;;;;;;5043508;28;20124;-37
2021/12/04 04:09:08;;;;;;;30.13;17.02;;;4.60;99.90;;;;;;5052945;28;20052;-37
2021/12/04 04:11:36;;;;;;;27.00;16.48;;;4.70;99.90;;;;;;5049722;28;20052;-37
2021/12/04 04:14:03;;;;;;;29.13;16.92;;;4.70;99.90;;;;;;5045035;28;20048;-37
2021/12/04 04:16:31;;;;;;;29.33;16.38;;;4.70;99.90;;;;;;5040181;28;20405;-40
2021/12/04 04:18:58;;;;;;;29.27;16.10;;;4.70;99.90;;;;;;5039446;28;20049;-39
2021/12/04 04:21:26;;;;;;;25.25;15.68;;;4.70;99.90;;;;;;5046709;28;20064;-37
2021/12/04 04:23:53;;;;;;;30.75;17.23;;;4.70;99.90;;;;;;5046383;28;20191;-39
2021/12/04 04:26:20;;;;;;;29.92;16.52;;;4.70;99.90;;;;;;5038982;28;20144;-38
2021/12/04 04:28:47;;;;;;;28.23;16.70;;;4.60;99.90;;;;;;5041256;28;20517;-37
2021/12/04 04:31:14;;;;;;;26.40;16.25;;;4.70;99.90;;;;;;5049868;28;20209;-37
2021/12/04 04:33:44;;;;;;;28.00;16.60;;;4.70;99.90;;;;;;5049683;28;20051;-37
2021/12/04 04:36:21;;;;;;;24.42;15.10;;;4.70;99.90;;;;;;5043239;28;20527;-37
2021/12/04 04:39:03;;;;;;;25.70;16.05;;;4.70;99.90;;;;;;5039722;28;20100;-38
2021/12/04 04:58:22;;;;;;;23.60;15.30;;;4.70;99.90;;;;;;5046768;28;20049;-37
2021/12/04 05:01:18;;;;;;;26.08;15.45;;;4.70;99.90;;;;;;5037222;28;20489;-37
2021/12/04 05:12:10;;;;;;;22.33;14.95;;;4.80;99.90;;;;;;5069446;28;20049;-37
2021/12/04 05:14:39;;;;;;;27.75;15.02;;;4.80;99.90;;;;;;5039565;28;20049;-40
2021/12/04 05:17:08;;;;;;;23.52;15.13;;;4.80;99.90;;;;;;5080048;28;20473;-37
2021/12/04 05:19:41;;;;;;;24.50;15.25;;;4.80;99.90;;;;;;5042331;28;20053;-38
2021/12/04 05:22:09;;;;;;;22.45;13.57;;;4.80;99.90;;;;;;5041940;28;20060;-37
2021/12/04 05:24:36;;;;;;;22.23;14.77;;;4.80;99.90;;;;;;5040686;28;20080;-37
2021/12/04 05:27:05;;;;;;;22.92;14.15;;;4.80;99.90;;;;;;5032583;28;20544;-38
2021/12/04 05:29:32;;;;;;;24.60;14.65;;;4.80;99.90;;;;;;5046844;28;20135;-39
2021/12/04 05:31:59;;;;;;;24.33;14.75;;;4.80;99.90;;;;;;5049714;28;20548;-37
2021/12/04 05:34:26;;;;;;;27.67;15.07;;;4.80;99.90;;;;;;5049135;28;20107;-37
2021/12/04 05:36:53;;;;;;;24.80;15.30;;;4.80;99.90;;;;;;5048331;28;20049;-39
2021/12/04 05:39:20;;;;;;;23.50;15.48;;;4.80;99.90;;;;;;5051323;28;20052;-37
2021/12/04 05:41:47;;;;;;;23.98;14.98;;;4.80;99.90;;;;;;5036728;28;20127;-37
2021/12/04 05:44:16;;;;;;;22.95;14.25;;;4.80;99.90;;;;;;5038813;28;20092;-38
2021/12/04 05:46:45;;;;;;;25.05;15.32;;;4.80;99.90;;;;;;5041012;28;20518;-37
2021/12/04 05:49:15;;;;;;;23.48;15.38;;;4.80;99.90;;;;;;5043314;28;20049;-37
2021/12/04 05:52:10;;;;;;;20.70;13.98;;;4.80;99.90;;;;;;5035810;28;20496;-37
2021/12/04 05:54:57;;;;;;;19.40;13.55;;;4.80;99.90;;;;;;5041388;28;20048;-37
2021/12/04 05:57:24;;;;;;;23.77;15.10;;;4.80;99.90;;;;;;5038186;28;20076;-37
2021/12/04 05:59:52;;;;;;;20.70;13.75;;;4.80;99.90;;;;;;5040219;28;20556;-37
2021/12/04 06:02:21;;;;;;;25.90;15.77;;;4.80;99.90;;;;;;5043049;28;20402;-37
2021/12/04 06:04:48;;;;;;;27.55;15.23;;;4.80;99.90;;;;;;5049366;28;20443;-37
2021/12/04 06:07:15;;;;;;;25.55;15.40;;;4.80;99.90;;;;;;5040136;28;20052;-37
2021/12/04 06:09:42;;;;;;;21.13;13.25;;;4.80;99.90;;;;;;5050382;28;20041;-37
2021/12/04 06:12:09;;;;;;;26.27;15.75;;;4.80;99.90;;;;;;5045991;28;20073;-38
2021/12/04 06:14:36;;;;;;;24.08;15.35;;;4.80;99.90;;;;;;5044175;28;20511;-38
2021/12/04 06:17:04;;;;;;;28.15;15.25;;;4.80;99.90;;;;;;5045429;28;20132;-36
2021/12/04 06:24:57;;;;;;;29.05;16.33;;;4.80;99.90;;;;;;5052540;28;20497;-37
2021/12/04 06:27:24;;;;;;;33.97;17.27;;;4.80;99.90;;;;;;5046816;28;20132;-36
2021/12/04 06:29:51;;;;;;;27.13;15.65;;;4.80;99.90;;;;;;5048787;28;20077;-38
2021/12/04 06:32:20;;;;;;;33.55;16.98;;;4.80;99.90;;;;;;5043154;28;20432;-37
2021/12/04 06:34:47;;;;;;;32.13;17.27;;;4.80;99.90;;;;;;5045363;28;20455;-37
2021/12/04 06:37:14;;;;;;;32.17;17.27;;;4.80;99.90;;;;;;5073563;28;20438;-37
2021/12/04 06:39:41;;;;;;;37.15;18.10;;;4.80;99.90;;;;;;5042661;28;20545;-37
2021/12/04 06:42:08;;;;;;;33.30;18.13;;;4.70;99.90;;;;;;5048086;28;20088;-40
2021/12/04 06:44:35;;;;;;;37.85;18.10;;;4.80;99.90;;;;;;5053099;28;20080;-38
2021/12/04 06:47:03;;;;;;;37.25;18.15;;;4.70;99.90;;;;;;5042529;28;20145;-37
2021/12/04 06:49:34;;;;;;;38.30;19.15;;;4.80;99.90;;;;;;5044282;28;20081;-38
2021/12/04 06:52:04;;;;;;;36.13;18.20;;;4.80;99.90;;;;;;5042382;28;20079;-37
2021/12/04 06:54:35;;;;;;;40.17;18.40;;;4.80;99.90;;;;;;5035228;28;20107;-39
2021/12/04 06:57:03;;;;;;;45.60;18.67;;;4.80;99.90;;;;;;5069233;28;20482;-37
2021/12/04 06:59:33;;;;;;;40.45;18.02;;;4.70;99.90;;;;;;5051869;28;20057;-37
2021/12/04 07:02:00;;;;;;;49.75;19.08;;;4.70;99.90;;;;;;5044161;28;20137;-37
2021/12/04 07:04:31;;;;;;;38.40;17.70;;;4.70;99.90;;;;;;5047318;28;20059;-37
2021/12/04 07:06:59;;;;;;;47.67;18.92;;;4.70;99.90;;;;;;5044138;28;20486;-39
2021/12/04 07:09:26;;;;;;;37.45;16.73;;;4.70;99.90;;;;;;5046584;28;20591;-37
2021/12/04 07:11:53;;;;;;;43.55;18.13;;;4.70;99.90;;;;;;5049954;28;20056;-36
2021/12/04 07:14:20;;;;;;;38.97;17.73;;;4.70;99.90;;;;;;5049124;28;20425;-37
2021/12/04 07:16:47;;;;;;;42.55;17.92;;;4.70;99.90;;;;;;5037422;28;20128;-37
2021/12/04 07:19:14;;;;;;;35.75;16.58;;;4.70;99.90;;;;;;5048620;28;20044;-37
2021/12/04 07:21:41;;;;;;;39.13;17.95;;;4.70;99.90;;;;;;5050010;28;20520;-37
2021/12/04 07:24:10;;;;;;;43.47;17.85;;;4.70;99.90;;;;;;5042757;28;20058;-38
2021/12/04 07:26:37;;;;;;;39.58;17.13;;;4.70;99.90;;;;;;5046388;28;20059;-37
2021/12/04 07:29:05;;;;;;;45.28;17.90;;;4.70;99.90;;;;;;5045124;28;20085;-37
2021/12/04 07:31:32;;;;;;;45.08;17.35;;;4.70;99.90;;;;;;5044723;28;20049;-37
2021/12/04 07:33:59;;;;;;;39.33;17.95;;;4.70;99.90;;;;;;5043833;28;20471;-36
2021/12/04 07:36:26;;;;;;;39.70;17.40;;;4.70;99.90;;;;;;5050229;28;20041;-36
2021/12/04 07:38:54;;;;;;;31.27;15.35;;;4.70;99.90;;;;;;5051025;28;20404;-37
2021/12/04 07:41:22;;;;;;;36.50;15.15;;;4.60;99.90;;;;;;5045147;28;20045;-37
2021/12/04 07:43:49;;;;;;;31.42;16.33;;;4.60;99.90;;;;;;5051182;28;20136;-37
2021/12/04 07:46:16;;;;;;;26.70;14.25;;;4.60;99.90;;;;;;5043508;28;20049;-38
2021/12/04 07:48:43;;;;;;;24.05;13.73;;;4.60;99.90;;;;;;5048174;28;20095;-38
2021/12/04 07:51:11;;;;;;;23.73;12.75;;;4.60;99.90;;;;;;5042593;28;20052;-37
2021/12/04 07:53:38;;;;;;;22.67;12.25;;;4.60;99.90;;;;;;5044559;28;20110;-37
2021/12/04 07:56:06;;;;;;;25.50;15.15;;;4.60;99.90;;;;;;5042794;28;20085;-38
2021/12/04 07:58:34;;;;;;;17.30;11.75;;;4.60;99.90;;;;;;5046370;28;20053;-37
2021/12/04 08:01:01;;;;;;;17.67;12.25;;;4.70;99.90;;;;;;5043122;28;20444;-37
2021/12/04 08:03:29;;;;;;;16.15;11.07;;;4.70;99.90;;;;;;5041756;28;20147;-38
2021/12/04 08:05:56;;;;;;;15.70;11.18;;;4.70;99.90;;;;;;5045246;28;20048;-37
2021/12/04 08:08:23;;;;;;;17.88;11.88;;;4.70;99.90;;;;;;5044269;28;20047;-37
2021/12/04 08:10:50;;;;;;;17.58;11.35;;;4.70;99.90;;;;;;5044087;28;20049;-37
2021/12/04 08:13:17;;;;;;;18.25;11.68;;;4.70;99.90;;;;;;5050283;28;20405;-39
2021/12/04 08:15:45;;;;;;;18.92;12.07;;;4.80;99.90;;;;;;5038201;28;20076;-38
2021/12/04 08:18:12;;;;;;;17.67;11.80;;;4.80;99.90;;;;;;5049030;28;20413;-38
2021/12/04 08:20:39;;;;;;;21.50;12.68;;;4.80;99.90;;;;;;5045143;28;20057;-37
2021/12/04 08:23:07;;;;;;;22.75;12.95;;;4.70;99.90;;;;;;5045248;28;20096;-39
2021/12/04 08:25:34;;;;;;;20.70;13.35;;;4.70;99.90;;;;;;5049585;28;20049;-38
2021/12/04 08:28:01;;;;;;;19.35;12.68;;;4.70;99.90;;;;;;5042823;28;20132;-42
2021/12/04 08:30:29;;;;;;;18.50;13.02;;;4.80;99.90;;;;;;5040549;28;20057;-40
2021/12/04 08:32:57;;;;;;;22.10;13.80;;;4.80;99.90;;;;;;5046707;28;20116;-38
2021/12/04 08:35:25;;;;;;;24.23;14.15;;;4.80;99.90;;;;;;5040599;28;20061;-37
2021/12/04 08:37:52;;;;;;;22.98;13.52;;;4.80;99.90;;;;;;5037657;28;20057;-38
2021/12/04 08:40:19;;;;;;;18.83;12.63;;;4.80;99.90;;;;;;5039739;28;20503;-37
2021/12/04 08:42:47;;;;;;;23.52;13.48;;;4.80;99.90;;;;;;5048318;28;20103;-38
2021/12/04 08:45:15;;;;;;;26.10;15.57;;;4.80;99.90;;;;;;5039412;28;20513;-39
2021/12/04 08:47:42;;;;;;;25.90;15.25;;;4.80;99.90;;;;;;5049843;28;20127;-39
2021/12/04 08:50:13;;;;;;;29.67;15.05;;;4.80;99.90;;;;;;5039305;28;20084;-38
2021/12/04 08:52:40;;;;;;;24.57;14.83;;;4.80;99.90;;;;;;5045607;28;20064;-40
2021/12/04 08:55:07;;;;;;;27.83;16.10;;;4.80;99.90;;;;;;5043287;28;20093;-38
2021/12/04 08:57:34;;;;;;;33.15;15.57;;;4.80;99.90;;;;;;5041281;28;20550;-38
2021/12/04 09:00:01;;;;;;;32.97;16.40;;;4.80;99.90;;;;;;5039170;28;20053;-38
2021/12/04 09:02:28;;;;;;;33.47;17.35;;;4.80;99.90;;;;;;5040203;28;20055;-38
2021/12/04 09:04:57;;;;;;;34.25;17.92;;;4.80;99.90;;;;;;5041246;28;20045;-38
2021/12/04 09:07:26;;;;;;;38.00;17.60;;;4.80;99.90;;;;;;5062873;28;20402;-37
2021/12/04 09:09:55;;;;;;;36.75;17.27;;;4.80;99.90;;;;;;5041668;28;20049;-40
2021/12/04 09:12:23;;;;;;;33.92;16.98;;;4.90;99.90;;;;;;5042194;28;20051;-37
2021/12/04 09:14:50;;;;;;;33.08;16.52;;;4.80;99.90;;;;;;5042019;28;20107;-38
2021/12/04 09:17:18;;;;;;;41.08;18.02;;;4.90;99.90;;;;;;5038033;28;20041;-41
2021/12/04 09:19:46;;;;;;;33.80;16.80;;;4.90;99.90;;;;;;5065312;28;20364;-39
2021/12/04 09:22:16;;;;;;;39.47;18.40;;;4.90;99.90;;;;;;5056473;28;20048;-38
2021/12/04 09:24:48;;;;;;;37.28;17.88;;;4.90;99.90;;;;;;5062020;28;20421;-39
2021/12/04 09:27:20;;;;;;;;;;;4.90;99.90;;;;;;5038393;28;20049;-39
2021/12/04 09:30:03;;;;;;;;;;;4.90;99.90;;;;;;5039227;28;19925;-37
2021/12/04 10:00:25;;;;;;;39.38;17.92;;;5.10;99.90;;;;;;5048322;28;20406;-42
2021/12/04 10:06:05;;;;;;;46.70;19.92;;;5.10;99.90;;;;;;5041978;28;20057;-38
2021/12/04 10:19:42;;;;;;;41.13;18.70;;;5.20;99.90;;;;;;5043838;28;20595;-41
2021/12/04 10:22:18;;;;;;;36.80;16.95;;;5.20;99.90;;;;;;5044967;28;20155;-39
2021/12/04 10:24:59;;;;;;;33.45;16.90;;;5.20;99.90;;;;;;5042396;28;20393;-38
2021/12/04 10:32:58;;;;;;;38.28;17.77;;;5.20;99.90;;;;;;5013648;28;20065;-37
2021/12/04 10:35:25;;;;;;;37.78;18.15;;;5.20;99.90;;;;;;5048460;28;20081;-38
2021/12/04 10:37:54;;;;;;;38.20;18.38;;;5.20;99.90;;;;;;5048765;28;20053;-37
2021/12/04 10:40:22;;;;;;;40.65;19.02;;;5.30;99.90;;;;;;5045123;28;20052;-40
2021/12/04 10:42:52;;;;;;;40.60;19.42;;;5.30;99.90;;;;;;5046587;28;20153;-37
2021/12/04 10:45:30;;;;;;;43.97;20.50;;;5.30;99.90;;;;;;5031743;28;20049;-40
2021/12/04 10:47:59;;;;;;;46.95;19.65;;;5.30;99.90;;;;;;5043673;28;20057;-38
2021/12/04 10:50:32;;;;;;;42.78;19.35;;;5.20;99.90;;;;;;5044355;28;20045;-42
2021/12/04 10:53:01;;;;;;;44.78;20.30;;;5.20;99.90;;;;;;5041089;28;20053;-40
2021/12/04 10:55:32;;;;;;;50.10;21.73;;;5.20;99.90;;;;;;5043113;28;20049;-36
2021/12/04 10:58:30;;;;;;;69.57;35.13;;;5.30;99.90;;;;;;5044184;28;20053;-37
2021/12/04 11:01:07;;;;;;;60.85;28.05;;;5.30;99.90;;;;;;5038035;28;20049;-37
2021/12/04 11:03:45;;;;;;;57.00;24.15;;;5.30;99.90;;;;;;5046137;28;20045;-38
2021/12/04 11:23:24;;;;;;;53.40;29.88;;;5.40;99.90;;;;;;4979162;28;20055;-38
2021/12/04 11:28:50;;;;;;;49.67;23.50;;;5.40;99.90;;;;;;5023927;28;20049;-38
2021/12/04 11:37:32;;;;;;;52.20;22.08;;;5.40;99.90;;;;;;5049452;28;20048;-37
2021/12/04 11:40:10;;;;;;;53.92;24.33;;;5.40;99.90;;;;;;5042522;28;20049;-38
2021/12/04 11:42:40;;;;;;;54.88;23.38;;;5.50;99.90;;;;;;5046821;28;20076;-37
2021/12/04 11:45:17;;;;;;;56.65;24.15;;;5.50;99.90;;;;;;5044930;28;20050;-38
2021/12/04 11:47:45;;;;;;;73.30;39.38;;;5.50;99.90;;;;;;5048417;28;20041;-40
2021/12/04 11:50:22;;;;;;;60.65;26.50;;;5.50;99.90;;;;;;5049830;28;20094;-39
2021/12/04 11:52:51;;;;;;;68.80;33.30;;;5.50;99.90;;;;;;5043764;28;20073;-39
2021/12/04 11:55:20;;;;;;;58.80;24.45;;;5.40;99.90;;;;;;5044412;28;20053;-40
2021/12/04 11:57:48;;;;;;;58.53;23.55;;;5.40;99.90;;;;;;5052363;28;20127;-38
2021/12/04 12:00:21;;;;;;;67.13;27.30;;;5.40;99.90;;;;;;5046987;28;20049;-37
2021/12/04 12:02:48;;;;;;;66.70;27.30;;;5.40;99.90;;;;;;5046904;28;20150;-41
2021/12/04 12:05:16;;;;;;;69.43;28.08;;;5.40;99.90;;;;;;5041117;28;20140;-38
2021/12/04 12:07:52;;;;;;;67.30;26.95;;;5.40;99.90;;;;;;5043172;28;20055;-36
2021/12/04 12:10:19;;;;;;;70.15;27.27;;;5.40;99.90;;;;;;5037462;28;20083;-37
2021/12/04 12:12:47;;;;;;;70.95;28.50;;;5.40;99.90;;;;;;5043581;28;20060;-38
2021/12/04 12:15:21;;;;;;;69.03;27.20;;;5.40;99.90;;;;;;5041567;28;20091;-36
2021/12/04 12:17:48;;;;;;;72.75;27.02;;;5.40;99.90;;;;;;5045080;28;20472;-38
2021/12/04 12:20:20;;;;;;;82.78;29.15;;;5.40;99.90;;;;;;5071441;28;20128;-37
2021/12/04 12:22:51;;;;;;;77.00;30.55;;;5.40;99.90;;;;;;5045208;28;20087;-36
2021/12/04 12:25:27;;;;;;;85.63;30.60;;;5.40;99.90;;;;;;5040586;28;20045;-36
2021/12/04 12:31:46;;;;;;;83.30;30.35;;;5.40;99.90;;;;;;5038261;28;20045;-36
2021/12/04 12:33:35;;;;;;;99.45;35.08;;;5.40;99.90;;;;;;5037568;28;20041;-40
2021/12/04 12:36:04;;;;;;;92.82;35.60;;;5.40;99.90;;;;;;5042438;28;20060;-39
2021/12/04 12:38:37;;;;;;;81.63;30.85;;;5.40;99.90;;;;;;5044459;28;20072;-40
2021/12/04 12:41:07;;;;;;;75.43;28.98;;;5.40;99.90;;;;;;5038920;28;20049;-42
2021/12/04 12:43:50;;;;;;;83.55;30.92;;;5.40;99.90;;;;;;5047202;28;20056;-38
2021/12/04 12:46:17;;;;;;;78.47;31.25;;;5.40;99.90;;;;;;5040782;28;20565;-38
2021/12/04 12:48:53;;;;;;;75.82;31.08;;;5.40;99.90;;;;;;5049162;28;20040;-38
2021/12/04 12:51:28;;;;;;;68.68;29.33;;;5.40;99.90;;;;;;5044277;28;20045;-41
2021/12/04 12:53:55;;;;;;;72.72;30.35;;;5.40;99.90;;;;;;5039800;28;20151;-42
2021/12/04 12:56:25;;;;;;;77.80;30.92;;;5.50;99.90;;;;;;5043864;28;20485;-41
2021/12/04 12:58:55;;;;;;;83.03;32.33;;;5.50;99.90;;;;;;5044649;28;20064;-40
2021/12/04 13:12:49;;;;;;;72.22;29.63;;;5.50;99.90;;;;;;5042498;28;20045;-38
2021/12/04 13:15:35;;;;;;;64.00;27.13;;;5.50;99.90;;;;;;5049002;28;20052;-38
2021/12/04 13:18:17;;;;;;;77.03;30.60;;;5.50;99.90;;;;;;5046175;28;20084;-37
2021/12/04 13:20:44;;;;;;;81.78;34.63;;;5.50;99.90;;;;;;5040538;28;20135;-38
2021/12/04 13:23:13;;;;;;;89.00;32.78;;;5.50;99.90;;;;;;5046071;28;20045;-38
2021/12/04 13:25:48;;;;;;;84.68;34.40;;;5.50;99.90;;;;;;5043336;28;20140;-38
2021/12/04 13:30:45;;;;;;;104.90;40.00;;;5.50;99.90;;;;;;5047146;28;20068;-39
2021/12/04 13:33:12;;;;;;;106.47;41.13;;;5.40;99.90;;;;;;5048200;28;20544;-38
2021/12/04 13:35:44;;;;;;;102.35;40.20;;;5.40;99.90;;;;;;5045289;28;20049;-37
2021/12/04 13:38:16;;;;;;;112.07;41.00;;;5.40;99.90;;;;;;5035045;28;20045;-39
2021/12/04 13:40:45;;;;;;;120.15;42.20;;;5.40;99.90;;;;;;5042342;28;20378;-38
2021/12/04 13:43:12;;;;;;;116.85;43.13;;;5.40;99.90;;;;;;5045634;28;20110;-37
2021/12/04 13:45:41;;;;;;;117.05;43.53;;;5.40;99.90;;;;;;5044252;28;20590;-37
2021/12/04 13:48:08;;;;;;;110.43;43.67;;;5.40;99.90;;;;;;5049896;28;20405;-37
2021/12/04 13:50:47;;;;;;;109.90;42.10;;;5.40;99.90;;;;;;5049793;28;20442;-39
2021/12/04 13:53:17;;;;;;;122.57;44.10;;;5.40;99.90;;;;;;5044679;28;20052;-39
2021/12/04 13:55:46;;;;;;;113.90;42.25;;;5.50;99.90;;;;;;5042447;28;20079;-37
2021/12/04 13:58:13;;;;;;;113.20;42.75;;;5.40;99.90;;;;;;5039821;28;20052;-37
2021/12/04 14:00:42;;;;;;;105.15;40.33;;;5.50;99.90;;;;;;5045108;28;20057;-37
2021/12/04 14:03:09;;;;;;;107.88;42.92;;;5.50;99.90;;;;;;5041203;28;20041;-39
2021/12/04 14:05:36;;;;;;;105.35;45.10;;;5.50;99.90;;;;;;5049001;28;20124;-39
2021/12/04 14:08:05;;;;;;;103.15;42.35;;;5.40;99.90;;;;;;5068507;28;20128;-37
2021/12/04 14:10:33;;;;;;;112.65;43.75;;;5.50;99.90;;;;;;5042262;28;20049;-37
2021/12/04 14:13:00;;;;;;;113.13;47.33;;;5.40;99.90;;;;;;5047552;28;20060;-38
2021/12/04 14:15:27;;;;;;;114.47;45.33;;;5.40;99.90;;;;;;5045501;28;20490;-37
2021/12/04 14:18:00;;;;;;;112.72;44.30;;;5.40;99.90;;;;;;5079253;28;20087;-38
2021/12/04 14:20:27;;;;;;;112.97;43.63;;;5.40;99.90;;;;;;5049736;28;20841;-37
2021/12/04 14:22:55;;;;;;;113.20;44.55;;;5.40;99.90;;;;;;5042015;28;20053;-37
2021/12/04 14:25:23;;;;;;;101.82;42.83;;;5.40;99.90;;;;;;5042611;28;20061;-37
2021/12/04 14:27:50;;;;;;;109.95;42.72;;;5.40;99.90;;;;;;5040658;28;20082;-40
2021/12/04 14:30:18;;;;;;;103.88;41.40;;;5.40;99.90;;;;;;5052346;28;20076;-36
2021/12/04 14:32:45;;;;;;;101.68;43.20;;;5.40;99.90;;;;;;5047893;28;20040;-36
2021/12/04 14:35:15;;;;;;;107.57;43.47;;;5.40;99.90;;;;;;5047366;28;20176;-40
2021/12/04 14:37:43;;;;;;;105.13;46.20;;;5.40;99.90;;;;;;5041790;28;20055;-37
2021/12/04 14:40:11;;;;;;;92.65;40.75;;;5.40;99.90;;;;;;5049436;28;20405;-41
2021/12/04 14:42:38;;;;;;;93.80;38.63;;;5.40;99.90;;;;;;5042997;28;20235;-37
2021/12/04 14:45:07;;;;;;;92.97;39.03;;;5.40;99.90;;;;;;5046072;28;20064;-37
2021/12/04 14:47:37;;;;;;;105.95;48.75;;;5.40;99.90;;;;;;5048636;28;20080;-37
2021/12/04 14:50:04;;;;;;;156.35;87.80;;;5.40;99.90;;;;;;5048161;28;20052;-37
2021/12/04 14:52:33;;;;;;;89.72;42.20;;;5.40;99.90;;;;;;5046176;28;20053;-37
2021/12/04 14:55:01;;;;;;;87.80;38.13;;;5.40;99.90;;;;;;5050025;28;20077;-37
2021/12/04 14:57:29;;;;;;;86.00;39.25;;;5.40;99.90;;;;;;5048182;28;20045;-40
2021/12/04 15:00:06;;;;;;;88.55;37.67;;;5.40;99.90;;;;;;5047752;28;20489;-39
2021/12/04 15:02:33;;;;;;;87.20;39.17;;;5.40;99.90;;;;;;5044175;28;20439;-42
2021/12/04 15:05:00;;;;;;;89.80;39.20;;;5.40;99.90;;;;;;5040533;28;20056;-37